createdAt,value
2019-01-21T15:48:12.258Z,4.6
2019-01-21T15:58:18.868Z,4.6
2019-01-21T16:08:10.679Z,4.4
2019-01-21T16:18:09.888Z,4.1
2019-01-21T16:28:09.097Z,4.1
2019-01-21T16:38:08.307Z,4.3
2019-01-21T16:48:07.627Z,4.3
2019-01-21T16:58:06.863Z,4.4
2019-01-21T17:08:06.157Z,4.6
2019-01-21T17:18:05.451Z,4.4
2019-01-21T17:28:04.743Z,4.5
2019-01-21T17:38:04.038Z,5.1
2019-01-21T17:48:03.254Z,6.1
2019-01-21T17:58:02.475Z,6.6
2019-01-21T18:08:01.683Z,6.8
2019-01-21T18:18:00.901Z,6.9
2019-01-21T18:28:00.119Z,7
2019-01-21T18:37:59.325Z,7.1
2019-01-21T18:47:58.534Z,7.1
2019-01-21T18:57:57.753Z,7
2019-01-21T19:07:56.965Z,7.1
2019-01-21T19:17:56.206Z,7.4
2019-01-21T19:27:55.398Z,7.6
2019-01-21T19:37:54.613Z,7.6
2019-01-21T19:47:53.901Z,7.6
2019-01-21T19:57:53.033Z,7.6
2019-01-21T20:07:52.246Z,7.6
2019-01-21T20:17:51.457Z,7.4
2019-01-21T20:27:50.666Z,7.3
2019-01-21T20:37:49.875Z,7.6
2019-01-21T20:47:49.086Z,7.6
2019-01-21T20:57:48.296Z,7.4
2019-01-21T21:07:47.529Z,7.6
2019-01-21T21:17:47.709Z,7.8
2019-01-21T21:27:46.924Z,8.1
2019-01-21T21:37:46.126Z,8.3
2019-01-21T21:47:45.338Z,8.4
2019-01-21T21:57:44.547Z,8.6
2019-01-21T22:07:43.751Z,8.6
2019-01-21T22:17:42.960Z,8.7
2019-01-21T22:27:42.169Z,8.7
2019-01-21T22:37:41.382Z,8.8
2019-01-21T22:47:40.584Z,8.8
2019-01-21T22:57:39.801Z,8.9
2019-01-21T23:07:39.004Z,8.9
2019-01-21T23:17:38.211Z,8.8
2019-01-21T23:27:37.416Z,8.8
2019-01-21T23:37:36.627Z,8.8
2019-01-21T23:47:35.836Z,8.8
2019-01-21T23:57:35.040Z,8.6
